createdAt,value
2018-08-04T00:00:15.896Z,11.47
2018-08-04T00:02:44.808Z,10.87
2018-08-04T00:05:13.585Z,10.93
2018-08-04T00:07:42.421Z,11.47
2018-08-04T00:10:16.492Z,10.93
2018-08-04T00:12:46.625Z,10.60
2018-08-04T00:15:15.478Z,11.13
2018-08-04T00:17:44.575Z,10.63
2018-08-04T00:20:13.517Z,10.43
2018-08-04T00:22:42.506Z,10.63
2018-08-04T00:25:11.255Z,10.33
2018-08-04T00:27:40.057Z,10.80
2018-08-04T00:30:12.999Z,11.23
2018-08-04T00:32:42.525Z,10.90
2018-08-04T00:35:13.101Z,10.13
2018-08-04T00:37:41.899Z,10.80
2018-08-04T00:40:11.969Z,10.47
2018-08-04T00:42:41.071Z,10.60
2018-08-04T00:45:09.997Z,10.20
2018-08-04T00:47:38.903Z,10.60
2018-08-04T00:50:08.941Z,10.83
2018-08-04T00:52:37.752Z,11.03
2018-08-04T00:55:06.923Z,11.17
2018-08-04T00:57:36.297Z,10.30
2018-08-04T01:00:05.756Z,10.13
2018-08-04T01:02:34.329Z,10.23
2018-08-04T01:05:03.060Z,10.60
2018-08-04T01:07:32.001Z,10.80
2018-08-04T01:10:02.176Z,10.57
2018-08-04T01:12:31.058Z,10.33
2018-08-04T01:15:00.265Z,10.20
2018-08-04T01:17:29.113Z,10.53
2018-08-04T01:20:02.201Z,10.20
2018-08-04T01:22:31.075Z,10.43
2018-08-04T01:24:59.914Z,10.00
2018-08-04T01:27:28.967Z,10.77
2018-08-04T01:29:57.840Z,10.13
2018-08-04T01:32:26.663Z,10.50
2018-08-04T01:34:55.462Z,10.53
2018-08-04T01:37:24.359Z,9.80
2018-08-04T01:39:53.654Z,10.10
2018-08-04T01:42:22.625Z,10.17
2018-08-04T01:44:51.196Z,9.47
2018-08-04T01:47:20.282Z,10.83
2018-08-04T01:49:49.079Z,10.00
2018-08-04T01:52:17.883Z,10.33
2018-08-04T01:54:46.443Z,10.60
2018-08-04T01:57:15.227Z,10.07
2018-08-04T01:59:44.054Z,10.13
2018-08-04T02:02:12.859Z,10.53
2018-08-04T02:04:41.779Z,10.43
2018-08-04T02:07:10.708Z,10.43
2018-08-04T02:09:39.500Z,10.47
2018-08-04T02:12:08.340Z,10.87
2018-08-04T02:14:37.280Z,10.50
2018-08-04T02:17:06.121Z,10.30
2018-08-04T02:19:34.939Z,10.40
2018-08-04T02:22:03.842Z,9.93
2018-08-04T02:24:36.019Z,10.80
2018-08-04T02:27:04.915Z,10.30
2018-08-04T02:29:33.719Z,10.87
2018-08-04T02:32:02.640Z,10.07
2018-08-04T02:34:31.492Z,10.80
2018-08-04T02:37:00.552Z,10.97
2018-08-04T02:39:29.559Z,10.67
2018-08-04T02:41:58.887Z,11.17
2018-08-04T02:44:27.786Z,11.07
2018-08-04T02:46:56.556Z,10.80
2018-08-04T02:49:25.144Z,11.17
2018-08-04T02:51:53.920Z,11.43
2018-08-04T02:54:22.947Z,11.60
2018-08-04T02:56:51.844Z,11.43
2018-08-04T02:59:20.748Z,10.50
2018-08-04T03:01:49.599Z,11.17
2018-08-04T03:04:18.429Z,10.73
2018-08-04T03:06:47.202Z,10.80
2018-08-04T03:09:16.010Z,11.50
2018-08-04T03:11:44.876Z,11.20
2018-08-04T03:14:13.752Z,11.20
2018-08-04T03:16:42.519Z,11.37
2018-08-04T03:19:12.087Z,11.00
2018-08-04T03:21:40.895Z,11.40
2018-08-04T03:24:09.837Z,11.23
2018-08-04T03:26:38.635Z,11.57
2018-08-04T03:29:07.493Z,11.03
2018-08-04T03:31:36.309Z,11.40
2018-08-04T03:34:05.137Z,11.00
2018-08-04T03:36:33.928Z,11.60
2018-08-04T03:39:02.859Z,11.60
2018-08-04T03:41:31.668Z,11.47
2018-08-04T03:44:00.479Z,11.03
2018-08-04T03:46:29.303Z,11.73
2018-08-04T03:48:58.090Z,11.40
2018-08-04T03:51:26.955Z,12.00
2018-08-04T03:53:55.763Z,11.90
2018-08-04T03:56:24.643Z,10.73
2018-08-04T03:58:53.467Z,12.17
2018-08-04T04:01:22.250Z,11.63
2018-08-04T04:03:51.082Z,11.00
2018-08-04T04:06:19.987Z,12.00
2018-08-04T04:08:49.391Z,11.43
2018-08-04T04:11:18.291Z,10.70
2018-08-04T04:13:47.134Z,11.73
2018-08-04T04:16:15.987Z,11.93
2018-08-04T04:18:44.820Z,11.87
2018-08-04T04:21:13.618Z,11.20
2018-08-04T04:23:42.428Z,11.27
2018-08-04T04:26:11.281Z,10.47
2018-08-04T04:28:40.071Z,10.63
2018-08-04T04:31:08.863Z,11.40
2018-08-04T04:33:37.696Z,12.10
2018-08-04T04:36:06.647Z,11.60
2018-08-04T04:38:35.747Z,11.63
2018-08-04T04:41:04.520Z,11.53
2018-08-04T04:43:33.310Z,11.90
2018-08-04T04:46:02.080Z,11.27
2018-08-04T04:48:31.159Z,11.70
2018-08-04T04:50:59.945Z,11.77
2018-08-04T04:53:28.687Z,11.47
2018-08-04T04:55:57.723Z,12.17
2018-08-04T04:58:26.258Z,11.33
2018-08-04T05:00:55.007Z,11.50
2018-08-04T05:03:24.156Z,11.83
2018-08-04T05:05:53.180Z,12.10
2018-08-04T05:08:21.959Z,12.23
2018-08-04T05:10:50.879Z,11.93
2018-08-04T05:13:19.691Z,12.30
2018-08-04T05:15:48.426Z,11.60
2018-08-04T05:18:17.228Z,13.03
2018-08-04T05:20:46.012Z,12.13
2018-08-04T05:23:14.866Z,12.10
2018-08-04T05:25:44.021Z,12.70
2018-08-04T05:28:12.827Z,12.53
2018-08-04T05:30:41.694Z,12.27
2018-08-04T05:33:10.513Z,12.40
2018-08-04T05:35:39.293Z,11.77
2018-08-04T05:38:08.116Z,11.60
2018-08-04T05:40:36.936Z,12.07
2018-08-04T05:43:05.769Z,11.63
2018-08-04T05:45:34.644Z,11.43
2018-08-04T05:48:03.456Z,11.30
2018-08-04T05:50:32.251Z,10.50
2018-08-04T05:53:01.023Z,11.27
2018-08-04T05:55:29.811Z,11.67
2018-08-04T05:57:58.655Z,11.10
2018-08-04T06:00:27.379Z,11.37
2018-08-04T06:02:56.228Z,10.67
2018-08-04T06:05:25.005Z,11.60
2018-08-04T06:07:53.871Z,10.97
2018-08-04T06:10:22.680Z,11.23
2018-08-04T06:12:51.450Z,11.20
2018-08-04T06:15:20.222Z,11.90
2018-08-04T06:17:49.056Z,11.23
2018-08-04T06:20:17.864Z,11.03
2018-08-04T06:22:46.711Z,11.37
2018-08-04T06:25:15.590Z,12.00
2018-08-04T06:27:44.388Z,11.73
2018-08-04T06:30:13.234Z,11.47
2018-08-04T06:32:42.825Z,11.53
2018-08-04T06:35:11.919Z,10.77
2018-08-04T06:37:40.765Z,11.40
2018-08-04T06:40:09.654Z,11.30
2018-08-04T06:42:38.433Z,10.97
2018-08-04T06:45:07.228Z,10.60
2018-08-04T06:47:36.126Z,11.43
2018-08-04T06:50:05.531Z,11.00
2018-08-04T06:52:34.427Z,11.00
2018-08-04T06:55:03.235Z,10.67
2018-08-04T06:57:32.028Z,10.77
2018-08-04T07:00:00.815Z,10.30
2018-08-04T07:02:29.647Z,9.83
2018-08-04T07:04:58.548Z,9.90
2018-08-04T07:07:27.587Z,10.07
2018-08-04T07:09:56.484Z,10.43
2018-08-04T07:12:25.263Z,10.00
2018-08-04T07:14:53.862Z,9.37
2018-08-04T07:17:22.583Z,9.73
2018-08-04T07:19:51.423Z,9.97
2018-08-04T07:22:20.249Z,10.30
2018-08-04T07:24:49.040Z,10.27
2018-08-04T07:27:17.942Z,9.87
2018-08-04T07:29:46.794Z,10.80
2018-08-04T07:32:15.559Z,9.57
2018-08-04T07:34:44.396Z,9.53
2018-08-04T07:37:13.217Z,9.70
2018-08-04T07:39:42.120Z,11.53
2018-08-04T07:42:10.891Z,10.97
2018-08-04T07:44:39.711Z,10.97
2018-08-04T07:47:08.533Z,12.07
2018-08-04T07:49:37.415Z,8.90
2018-08-04T07:52:06.526Z,8.67
2018-08-04T07:54:35.704Z,9.20
2018-08-04T07:57:04.788Z,8.37
2018-08-04T07:59:33.390Z,9.13
2018-08-04T08:02:02.226Z,9.60
2018-08-04T08:04:31.059Z,8.73
2018-08-04T08:06:59.849Z,10.30
2018-08-04T08:09:28.871Z,11.60
2018-08-04T08:11:57.707Z,9.50
2018-08-04T08:14:26.525Z,10.10
2018-08-04T08:16:55.376Z,9.40
2018-08-04T08:19:24.241Z,8.55
2018-08-04T08:21:53.007Z,9.18
2018-08-04T08:24:21.800Z,10.23
2018-08-04T08:26:50.631Z,9.05
2018-08-04T08:29:19.424Z,9.50
2018-08-04T08:31:48.297Z,10.23
2018-08-04T08:34:17.131Z,8.78
2018-08-04T08:36:45.944Z,9.58
2018-08-04T08:39:14.827Z,8.85
2018-08-04T08:41:43.627Z,9.03
2018-08-04T08:44:12.431Z,10.60
2018-08-04T08:46:41.243Z,9.20
2018-08-04T08:49:09.790Z,12.00
2018-08-04T08:51:38.499Z,11.33
2018-08-04T08:54:07.549Z,10.63
2018-08-04T08:56:36.190Z,17.50
2018-08-04T08:59:05.112Z,9.65
2018-08-04T09:01:34.033Z,11.50
2018-08-04T09:04:02.795Z,9.48
2018-08-04T09:06:31.597Z,10.32
2018-08-04T09:09:00.394Z,9.58
2018-08-04T09:11:29.180Z,8.83
2018-08-04T09:13:58.028Z,8.30
2018-08-04T09:16:26.904Z,11.28
2018-08-04T09:18:55.802Z,10.05
2018-08-04T09:21:24.515Z,9.45
2018-08-04T09:23:53.279Z,8.65
2018-08-04T09:26:22.091Z,8.88
2018-08-04T09:28:51.209Z,10.48
2018-08-04T09:31:19.974Z,9.68
2018-08-04T09:33:48.815Z,9.28
2018-08-04T09:36:17.590Z,8.88
2018-08-04T09:38:46.467Z,8.58
2018-08-04T09:41:15.227Z,10.18
2018-08-04T09:43:44.096Z,8.80
2018-08-04T09:46:12.937Z,10.63
2018-08-04T09:48:41.700Z,8.78
2018-08-04T09:51:10.508Z,10.38
2018-08-04T09:53:39.328Z,8.83
2018-08-04T09:56:08.136Z,11.73
2018-08-04T09:58:37.260Z,8.33
2018-08-04T10:01:11.932Z,8.13
2018-08-04T10:03:40.719Z,11.20
2018-08-04T10:06:09.565Z,7.87
2018-08-04T10:08:38.471Z,10.20
2018-08-04T10:11:07.388Z,13.72
2018-08-04T10:13:36.193Z,7.42
2018-08-04T10:16:05.362Z,7.12
2018-08-04T10:18:34.155Z,6.90
2018-08-04T10:21:02.954Z,6.97
2018-08-04T10:23:31.748Z,7.22
2018-08-04T10:26:00.591Z,7.28
2018-08-04T10:28:29.391Z,6.50
2018-08-04T10:30:58.363Z,7.60
2018-08-04T10:33:27.104Z,7.12
2018-08-04T10:35:55.945Z,7.78
2018-08-04T10:38:24.704Z,6.35
2018-08-04T10:40:53.647Z,6.42
2018-08-04T10:43:22.643Z,6.33
2018-08-04T10:45:51.411Z,8.58
2018-08-04T10:48:20.212Z,5.72
2018-08-04T10:50:49.000Z,6.08
2018-08-04T10:53:17.811Z,6.12
2018-08-04T10:55:46.656Z,6.17
2018-08-04T10:58:15.671Z,9.65
2018-08-04T11:00:44.438Z,11.48
2018-08-04T11:03:13.240Z,7.00
2018-08-04T11:05:42.042Z,6.90
2018-08-04T11:08:10.885Z,5.92
2018-08-04T11:10:39.704Z,5.60
2018-08-04T11:13:08.688Z,6.80
2018-08-04T11:15:37.521Z,6.53
2018-08-04T11:18:06.382Z,9.35
2018-08-04T11:20:35.159Z,6.65
2018-08-04T11:23:03.939Z,5.85
2018-08-04T11:25:32.733Z,8.20
2018-08-04T11:28:01.516Z,8.88
2018-08-04T11:30:30.298Z,7.30
2018-08-04T11:32:59.088Z,6.80
2018-08-04T11:35:27.879Z,6.97
2018-08-04T11:37:56.771Z,9.15
2018-08-04T11:40:25.631Z,14.05
2018-08-04T11:42:54.447Z,5.75
2018-08-04T11:45:23.252Z,9.60
2018-08-04T11:47:52.043Z,6.45
2018-08-04T11:50:20.824Z,7.83
2018-08-04T11:52:49.665Z,5.10
2018-08-04T11:55:18.484Z,5.75
2018-08-04T11:57:47.387Z,5.53
2018-08-04T12:00:17.680Z,7.87
2018-08-04T12:02:46.912Z,5.80
2018-08-04T12:05:16.151Z,5.90
2018-08-04T12:07:45.303Z,5.78
2018-08-04T12:10:14.769Z,8.18
2018-08-04T12:12:43.631Z,5.40
2018-08-04T12:15:12.445Z,5.58
2018-08-04T12:17:41.294Z,5.92
2018-08-04T12:20:10.120Z,5.08
2018-08-04T12:22:38.950Z,5.75
2018-08-04T12:25:07.759Z,7.45
2018-08-04T12:27:36.599Z,8.58
2018-08-04T12:30:05.999Z,4.90
2018-08-04T12:32:34.712Z,8.88
2018-08-04T12:35:03.504Z,5.10
2018-08-04T12:37:32.444Z,4.90
2018-08-04T12:40:01.389Z,5.70
2018-08-04T12:42:30.349Z,5.08
2018-08-04T12:44:59.182Z,5.10
2018-08-04T12:47:28.043Z,5.85
2018-08-04T12:49:57.115Z,9.08
2018-08-04T12:52:26.003Z,9.28
2018-08-04T12:54:54.845Z,5.37
2018-08-04T12:57:23.635Z,4.90
2018-08-04T12:59:52.428Z,9.73
2018-08-04T13:02:21.321Z,5.08
2018-08-04T13:04:50.167Z,18.05
2018-08-04T13:07:19.006Z,5.15
2018-08-04T13:12:22.899Z,4.30
2018-08-04T13:14:51.719Z,5.20
2018-08-04T13:17:20.545Z,4.20
2018-08-04T13:19:49.307Z,5.35
2018-08-04T13:22:18.116Z,4.58
2018-08-04T13:24:46.949Z,5.00
2018-08-04T13:27:15.797Z,7.92
2018-08-04T13:29:44.644Z,4.87
2018-08-04T13:32:13.712Z,11.25
2018-08-04T13:34:42.508Z,4.90
2018-08-04T13:37:11.452Z,5.00
2018-08-04T13:39:40.340Z,4.45
2018-08-04T13:42:09.135Z,5.05
2018-08-04T13:44:37.972Z,4.80
2018-08-04T13:47:07.991Z,4.37
2018-08-04T13:49:36.910Z,4.22
2018-08-04T13:52:05.897Z,4.08
2018-08-04T13:54:34.733Z,4.58
2018-08-04T13:57:03.308Z,4.58
2018-08-04T13:59:31.875Z,4.25
2018-08-04T14:02:00.529Z,4.53
2018-08-04T14:04:29.423Z,4.45
2018-08-04T14:06:58.363Z,4.30
2018-08-04T14:09:27.294Z,4.10
2018-08-04T14:11:56.066Z,4.40
2018-08-04T14:14:25.043Z,4.65
2018-08-04T14:16:54.004Z,5.03
2018-08-04T14:19:22.969Z,4.75
2018-08-04T14:21:51.795Z,4.78
2018-08-04T14:24:21.540Z,4.50
2018-08-04T14:26:50.511Z,4.70
2018-08-04T14:29:19.439Z,5.05
2018-08-04T14:31:48.454Z,4.80
2018-08-04T14:34:17.279Z,4.72
2018-08-04T14:36:46.096Z,4.25
2018-08-04T14:39:14.963Z,4.75
2018-08-04T14:41:43.794Z,4.50
2018-08-04T14:44:12.552Z,4.60
2018-08-04T14:46:41.447Z,4.47
2018-08-04T14:49:10.317Z,4.75
2018-08-04T14:51:39.011Z,4.33
2018-08-04T14:54:07.923Z,4.53
2018-08-04T14:56:36.698Z,4.45
2018-08-04T14:59:05.983Z,4.47
2018-08-04T15:01:35.002Z,4.62
2018-08-04T15:04:03.817Z,4.42
2018-08-04T15:06:32.673Z,4.35
2018-08-04T15:09:01.685Z,4.12
2018-08-04T15:11:30.615Z,4.50
2018-08-04T15:13:59.501Z,5.15
2018-08-04T15:16:28.490Z,5.58
2018-08-04T15:18:57.346Z,7.35
2018-08-04T15:21:26.261Z,4.83
2018-08-04T15:23:55.167Z,4.90
2018-08-04T15:26:24.088Z,4.83
2018-08-04T15:28:52.979Z,4.53
2018-08-04T15:31:21.866Z,4.85
2018-08-04T15:33:50.776Z,4.35
2018-08-04T15:36:19.552Z,4.70
2018-08-04T15:38:48.239Z,5.37
2018-08-04T15:41:17.039Z,7.50
2018-08-04T15:43:45.901Z,4.42
2018-08-04T15:46:14.892Z,6.15
2018-08-04T15:48:43.821Z,9.00
2018-08-04T15:51:12.667Z,7.72
2018-08-04T15:53:41.470Z,7.67
2018-08-04T15:56:12.716Z,5.67
2018-08-04T15:58:41.565Z,11.22
2018-08-04T16:01:10.459Z,8.08
2018-08-04T16:03:39.258Z,6.45
2018-08-04T16:06:08.143Z,19.27
2018-08-04T16:08:36.923Z,7.30
2018-08-04T16:11:05.824Z,4.80
2018-08-04T16:13:34.727Z,4.92
2018-08-04T16:16:03.677Z,6.20
2018-08-04T16:18:32.459Z,5.92
2018-08-04T16:21:01.260Z,5.70
2018-08-04T16:23:30.084Z,5.17
2018-08-04T16:25:58.975Z,4.80
2018-08-04T16:28:27.764Z,4.90
2018-08-04T16:30:56.566Z,4.40
2018-08-04T16:33:25.567Z,5.17
2018-08-04T16:35:54.350Z,10.05
2018-08-04T16:38:23.135Z,10.90
2018-08-04T16:40:52.995Z,8.35
2018-08-04T16:43:21.792Z,9.78
2018-08-04T16:45:50.603Z,5.20
2018-08-04T16:48:19.396Z,4.35
2018-08-04T16:50:48.175Z,4.85
2018-08-04T16:53:17.384Z,5.30
2018-08-04T16:55:46.204Z,4.90
2018-08-04T16:58:15.007Z,5.10
2018-08-04T17:00:44.395Z,7.03
2018-08-04T17:03:12.999Z,5.80
2018-08-04T17:05:41.724Z,11.73
2018-08-04T17:08:10.532Z,7.37
2018-08-04T17:10:39.382Z,6.15
2018-08-04T17:13:08.482Z,5.37
2018-08-04T17:15:37.378Z,5.85
2018-08-04T17:18:06.399Z,6.15
2018-08-04T17:20:35.175Z,6.90
2018-08-04T17:23:03.980Z,5.40
2018-08-04T17:25:33.021Z,5.62
2018-08-04T17:28:01.912Z,5.83
2018-08-04T17:30:30.907Z,6.00
2018-08-04T17:32:59.683Z,6.22
2018-08-04T17:35:28.499Z,8.95
2018-08-04T17:37:57.319Z,6.20
2018-08-04T17:40:26.257Z,6.12
2018-08-04T17:42:55.367Z,7.53
2018-08-04T17:45:24.383Z,5.92
2018-08-04T17:47:53.179Z,5.97
2018-08-04T17:50:22.315Z,5.70
2018-08-04T17:52:51.283Z,6.65
2018-08-04T17:55:20.102Z,6.62
2018-08-04T17:57:48.994Z,6.90
2018-08-04T18:00:17.776Z,5.67
2018-08-04T18:02:46.566Z,5.60
2018-08-04T18:05:15.352Z,6.50
2018-08-04T18:07:44.137Z,8.20
2018-08-04T18:10:12.936Z,6.67
2018-08-04T18:12:42.576Z,6.40
2018-08-04T18:15:11.371Z,5.78
2018-08-04T18:17:40.362Z,6.90
2018-08-04T18:20:09.160Z,7.78
2018-08-04T18:22:37.960Z,7.70
2018-08-04T18:25:06.757Z,5.92
2018-08-04T18:27:35.570Z,6.35
2018-08-04T18:30:04.487Z,8.43
2018-08-04T18:32:33.223Z,6.25
2018-08-04T18:35:02.053Z,5.80
2018-08-04T18:37:30.836Z,5.90
2018-08-04T18:39:59.640Z,5.37
2018-08-04T18:42:28.411Z,5.80
2018-08-04T18:44:57.367Z,5.53
2018-08-04T18:47:26.178Z,5.33
2018-08-04T18:49:55.035Z,5.67
2018-08-04T18:52:23.816Z,5.50
2018-08-04T18:54:52.627Z,5.80
2018-08-04T18:57:21.398Z,5.83
2018-08-04T18:59:50.216Z,5.78
2018-08-04T19:02:19.032Z,5.60
2018-08-04T19:04:47.811Z,5.45
2018-08-04T19:07:16.605Z,5.72
2018-08-04T19:09:45.425Z,5.60
2018-08-04T19:12:14.220Z,6.10
2018-08-04T19:14:43.048Z,6.17
2018-08-04T19:17:11.843Z,6.05
2018-08-04T19:19:40.617Z,6.05
2018-08-04T19:22:09.460Z,6.17
2018-08-04T19:24:38.259Z,6.03
2018-08-04T19:27:07.038Z,6.15
2018-08-04T19:29:35.844Z,6.47
2018-08-04T19:32:04.631Z,5.47
2018-08-04T19:34:33.447Z,5.62
2018-08-04T19:37:02.351Z,6.50
2018-08-04T19:39:31.104Z,6.12
2018-08-04T19:41:59.878Z,5.90
2018-08-04T19:44:28.667Z,6.37
2018-08-04T19:46:57.452Z,6.10
2018-08-04T19:49:26.295Z,6.00
2018-08-04T19:51:55.101Z,6.05
2018-08-04T19:54:23.912Z,6.10
2018-08-04T19:56:52.715Z,6.03
2018-08-04T19:59:21.511Z,6.55
2018-08-04T20:01:50.339Z,7.00
2018-08-04T20:04:19.152Z,6.77
2018-08-04T20:06:47.988Z,6.53
2018-08-04T20:09:16.803Z,6.07
2018-08-04T20:11:45.584Z,6.30
2018-08-04T20:14:14.388Z,6.70
2018-08-04T20:16:43.173Z,6.20
2018-08-04T20:19:11.959Z,5.87
2018-08-04T20:21:40.743Z,6.83
2018-08-04T20:24:09.563Z,6.53
2018-08-04T20:26:38.370Z,6.67
2018-08-04T20:29:07.160Z,6.20
2018-08-04T20:31:35.961Z,6.50
2018-08-04T20:34:04.767Z,6.43
2018-08-04T20:36:33.575Z,6.50
2018-08-04T20:39:02.521Z,6.50
2018-08-04T20:41:31.315Z,6.10
2018-08-04T20:44:00.116Z,6.37
2018-08-04T20:46:28.955Z,6.23
2018-08-04T20:48:57.732Z,6.30
2018-08-04T20:51:26.532Z,6.50
2018-08-04T20:53:55.395Z,6.77
2018-08-04T20:56:24.236Z,6.50
2018-08-04T20:58:53.195Z,6.30
2018-08-04T21:01:31.971Z,6.27
2018-08-04T21:04:00.792Z,6.60
2018-08-04T21:06:29.627Z,6.90
2018-08-04T21:08:58.397Z,6.67
2018-08-04T21:11:27.180Z,6.60
2018-08-04T21:13:56.024Z,6.97
2018-08-04T21:16:24.819Z,6.10
2018-08-04T21:18:53.650Z,6.67
2018-08-04T21:21:22.423Z,7.40
2018-08-04T21:23:51.207Z,7.03
2018-08-04T21:26:20.003Z,6.80
2018-08-04T21:28:48.786Z,6.97
2018-08-04T21:31:17.568Z,6.93
2018-08-04T21:33:46.362Z,6.67
2018-08-04T21:36:15.144Z,7.00
2018-08-04T21:38:43.965Z,6.83
2018-08-04T21:41:12.788Z,6.80
2018-08-04T21:43:41.576Z,8.17
2018-08-04T21:46:10.396Z,6.80
2018-08-04T21:48:39.575Z,6.50
2018-08-04T21:51:08.476Z,7.33
2018-08-04T21:53:37.264Z,7.03
2018-08-04T21:56:06.084Z,7.67
2018-08-04T21:58:34.845Z,7.10
2018-08-04T22:01:09.143Z,6.87
2018-08-04T22:03:37.907Z,7.40
2018-08-04T22:06:06.712Z,6.90
2018-08-04T22:08:46.768Z,6.97
2018-08-04T22:11:15.581Z,6.93
2018-08-04T22:13:44.523Z,7.40
2018-08-04T22:16:13.319Z,6.87
2018-08-04T22:18:42.741Z,6.97
2018-08-04T22:21:11.499Z,7.33
2018-08-04T22:23:40.296Z,7.30
2018-08-04T22:26:09.106Z,7.27
2018-08-04T22:28:37.891Z,6.93
2018-08-04T22:31:06.727Z,7.50
2018-08-04T22:33:35.503Z,7.33
2018-08-04T22:36:04.316Z,7.47
2018-08-04T22:38:33.083Z,7.50
2018-08-04T22:41:01.875Z,7.00
2018-08-04T22:43:30.668Z,7.53
2018-08-04T22:46:12.815Z,6.70
2018-08-04T22:48:42.734Z,7.20
2018-08-04T22:51:11.555Z,7.30
2018-08-04T22:53:40.333Z,8.20
2018-08-04T22:56:09.127Z,7.50
2018-08-04T22:58:37.901Z,7.43
2018-08-04T23:01:06.684Z,7.33
2018-08-04T23:03:35.554Z,7.40
2018-08-04T23:06:04.350Z,7.83
2018-08-04T23:08:33.148Z,7.63
2018-08-04T23:11:01.963Z,7.73
2018-08-04T23:13:30.767Z,7.30
2018-08-04T23:15:59.560Z,7.07
2018-08-04T23:18:28.350Z,7.80
2018-08-04T23:20:57.115Z,7.73
2018-08-04T23:23:25.913Z,7.83
2018-08-04T23:25:54.720Z,8.10
2018-08-04T23:28:23.492Z,7.70
2018-08-04T23:30:52.276Z,7.93
2018-08-04T23:33:21.172Z,7.47
2018-08-04T23:35:50.096Z,7.60
2018-08-04T23:38:18.906Z,7.27
2018-08-04T23:40:47.458Z,8.23
2018-08-04T23:43:16.175Z,7.43
2018-08-04T23:45:44.745Z,7.57
2018-08-04T23:48:13.441Z,7.83
2018-08-04T23:50:42.215Z,7.53
2018-08-04T23:53:10.988Z,8.03
2018-08-04T23:55:39.787Z,7.70
2018-08-04T23:58:08.618Z,7.60
